createdAt,value
2022-08-12T00:00:48.068Z,98793.13
2022-08-12T00:03:33.231Z,98786.78
2022-08-12T00:06:19.058Z,98791.31
2022-08-12T00:09:05.344Z,98797.69
2022-08-12T00:11:50.620Z,98795.84
2022-08-12T00:14:36.665Z,98800.06
2022-08-12T00:17:23.231Z,98799.25
2022-08-12T00:20:09.217Z,98804.09
2022-08-12T00:22:59.768Z,98794.72
2022-08-12T00:26:21.426Z,98795.91
2022-08-12T00:29:02.530Z,98792.38
2022-08-12T00:31:47.490Z,98787.22
2022-08-12T00:34:36.863Z,98792.56
2022-08-12T00:37:22.856Z,98789.72
2022-08-12T00:40:11.584Z,98797.44
2022-08-12T00:42:41.132Z,98799.75
2022-08-12T00:45:08.673Z,98795.59
2022-08-12T00:47:35.626Z,98801.63
2022-08-12T00:50:02.621Z,98796.59
2022-08-12T00:52:29.139Z,98801.78
2022-08-12T00:54:58.327Z,98801.09
2022-08-12T00:57:28.721Z,98803.75
2022-08-12T00:59:58.809Z,98794.38
2022-08-12T01:02:25.246Z,98808.47
2022-08-12T01:05:16.836Z,98807.28
2022-08-12T01:08:03.655Z,98804.38
2022-08-12T01:10:50.267Z,98803.75
2022-08-12T01:13:20.256Z,98809.25
2022-08-12T01:15:49.986Z,98812.97
2022-08-12T01:18:17.940Z,98815.97
2022-08-12T01:20:49.979Z,98817.66
2022-08-12T01:23:35.306Z,98804.13
2022-08-12T01:26:07.850Z,98805.81
2022-08-12T01:28:35.784Z,98813.31
2022-08-12T01:31:05.636Z,98818.13
2022-08-12T01:34:03.884Z,98815.25
2022-08-12T01:36:39.760Z,98816.06
2022-08-12T01:39:06.680Z,98813.56
2022-08-12T01:41:39.812Z,98814.19
2022-08-12T01:44:09.206Z,98822.69
2022-08-12T01:46:38.940Z,98815.13
2022-08-12T01:49:23.396Z,98815.97
2022-08-12T01:52:20.496Z,98813.06
2022-08-12T01:54:45.688Z,98812.06
2022-08-12T01:57:58.893Z,98817.75
2022-08-12T02:00:18.953Z,98810.72
2022-08-12T02:03:19.234Z,98804.84
2022-08-12T02:06:13.482Z,98805.00
2022-08-12T02:09:08.945Z,98799.66
2022-08-12T02:11:47.437Z,98790.94
2022-08-12T02:14:40.475Z,98792.97
2022-08-12T02:17:16.352Z,98795.59
2022-08-12T02:20:12.979Z,98784.03
2022-08-12T02:22:44.551Z,98786.84
2022-08-12T02:25:13.367Z,98790.16
2022-08-12T02:27:45.629Z,98787.81
2022-08-12T02:30:15.917Z,98786.13
2022-08-12T02:32:44.868Z,98791.78
2022-08-12T02:35:19.526Z,98794.63
2022-08-12T02:37:47.846Z,98786.84
2022-08-12T02:40:17.549Z,98794.06
2022-08-12T02:43:06.369Z,98790.72
2022-08-12T02:45:46.299Z,98789.69
2022-08-12T02:48:19.792Z,98783.28
2022-08-12T02:50:51.541Z,98787.78
2022-08-12T02:53:19.082Z,98780.59
2022-08-12T02:55:45.922Z,98783.78
2022-08-12T02:58:14.683Z,98781.28
2022-08-12T03:00:43.497Z,98780.44
2022-08-12T03:03:12.772Z,98786.09
2022-08-12T03:05:54.290Z,98790.75
2022-08-12T03:08:31.703Z,98792.66
2022-08-12T03:11:03.710Z,98790.13
2022-08-12T03:13:33.490Z,98799.31
2022-08-12T03:16:00.605Z,98798.53
2022-08-12T03:18:32.528Z,98791.34
2022-08-12T03:21:00.885Z,98793.06
2022-08-12T03:23:30.839Z,98790.91
2022-08-12T03:26:00.660Z,98803.88
2022-08-12T03:28:47.801Z,98799.31
2022-08-12T03:31:14.309Z,98803.25
2022-08-12T03:33:46.731Z,98796.41
2022-08-12T03:36:34.935Z,98802.34
2022-08-12T03:39:19.269Z,98800.06
2022-08-12T03:42:06.093Z,98800.47
2022-08-12T03:45:06.390Z,98804.41
2022-08-12T03:47:57.194Z,98805.25
2022-08-12T03:50:43.827Z,98806.53
2022-08-12T03:53:29.363Z,98819.66
2022-08-12T03:56:14.169Z,98805.22
2022-08-12T03:59:00.086Z,98810.31
2022-08-12T04:01:27.407Z,98814.25
2022-08-12T04:03:54.689Z,98817.34
2022-08-12T04:06:35.019Z,98816.56
2022-08-12T04:09:14.463Z,98818.56
2022-08-12T04:12:02.596Z,98818.78
2022-08-12T04:14:29.053Z,98823.19
2022-08-12T04:16:57.017Z,98824.69
2022-08-12T04:19:25.058Z,98823.81
2022-08-12T04:22:02.260Z,98825.94
2022-08-12T04:24:36.805Z,98829.31
2022-08-12T04:27:09.549Z,98825.41
2022-08-12T04:30:30.947Z,98826.88
2022-08-12T04:32:25.799Z,98830.31
2022-08-12T04:34:52.771Z,98831.47
2022-08-12T04:37:19.470Z,98830.53
2022-08-12T04:39:46.417Z,98829.00
2022-08-12T04:42:13.199Z,98826.88
2022-08-12T04:44:40.100Z,98831.16
2022-08-12T04:47:06.630Z,98833.38
2022-08-12T04:49:34.812Z,98830.13
2022-08-12T04:52:03.228Z,98832.09
2022-08-12T04:54:31.194Z,98830.72
2022-08-12T04:57:03.487Z,98834.19
2022-08-12T04:59:48.013Z,98836.63
2022-08-12T05:02:21.569Z,98836.38
2022-08-12T05:04:56.033Z,98830.06
2022-08-12T05:07:27.641Z,98837.94
2022-08-12T05:10:00.179Z,98834.50
2022-08-12T05:12:39.891Z,98833.84
2022-08-12T05:15:27.449Z,98830.78
2022-08-12T05:17:55.411Z,98823.69
2022-08-12T05:20:22.625Z,98829.22
2022-08-12T05:22:49.930Z,98831.06
2022-08-12T05:25:20.189Z,98820.94
2022-08-12T05:27:55.317Z,98832.81
2022-08-12T05:30:25.394Z,98836.97
2022-08-12T05:32:53.775Z,98835.78
2022-08-12T05:35:21.659Z,98830.38
2022-08-12T05:37:49.420Z,98823.44
2022-08-12T05:40:16.257Z,98831.72
2022-08-12T05:42:42.963Z,98836.94
2022-08-12T05:45:10.207Z,98834.53
2022-08-12T05:47:53.042Z,98835.78
2022-08-12T05:50:20.801Z,98838.13
2022-08-12T05:52:48.091Z,98838.50
2022-08-12T05:55:14.897Z,98841.88
2022-08-12T05:57:41.336Z,98842.66
2022-08-12T06:00:08.308Z,98844.06
2022-08-12T06:02:35.531Z,98845.50
2022-08-12T06:05:02.385Z,98847.91
2022-08-12T06:07:38.537Z,98843.75
2022-08-12T06:10:32.015Z,98843.53
2022-08-12T06:13:03.992Z,98846.97
2022-08-12T06:15:31.767Z,98851.72
2022-08-12T06:18:13.791Z,98845.81
2022-08-12T06:20:43.241Z,98844.94
2022-08-12T06:23:10.734Z,98848.81
2022-08-12T06:25:37.799Z,98849.41
2022-08-12T06:28:17.214Z,98840.19
2022-08-12T06:30:53.118Z,98843.38
2022-08-12T06:33:55.237Z,98845.47
2022-08-12T06:36:21.149Z,98847.94
2022-08-12T06:38:49.173Z,98844.03
2022-08-12T06:41:34.542Z,98845.97
2022-08-12T06:44:04.424Z,98833.53
2022-08-12T06:46:36.718Z,98840.78
2022-08-12T06:49:03.566Z,98838.31
2022-08-12T06:51:32.205Z,98843.63
2022-08-12T06:54:00.602Z,98834.41
2022-08-12T06:56:45.850Z,98840.50
2022-08-12T06:59:15.723Z,98832.25
2022-08-12T07:01:49.596Z,98838.66
2022-08-12T07:04:36.809Z,98822.47
2022-08-12T07:07:06.373Z,98830.63
2022-08-12T07:10:06.762Z,98831.72
2022-08-12T07:12:21.909Z,98830.63
2022-08-12T07:14:51.413Z,98824.03
2022-08-12T07:17:18.305Z,98828.19
2022-08-12T07:19:46.799Z,98828.25
2022-08-12T07:22:15.429Z,98825.94
2022-08-12T07:24:42.217Z,98820.72
2022-08-12T07:27:08.719Z,98827.97
2022-08-12T07:29:57.876Z,98829.72
2022-08-12T07:32:24.432Z,98820.81
2022-08-12T07:34:52.345Z,98834.00
2022-08-12T07:37:21.459Z,98829.34
2022-08-12T07:39:50.783Z,98833.94
2022-08-12T07:42:26.820Z,98825.44
2022-08-12T07:44:53.363Z,98833.28
2022-08-12T07:47:19.985Z,98827.97
2022-08-12T07:50:03.235Z,98833.19
2022-08-12T07:52:33.166Z,98835.84
2022-08-12T07:55:00.306Z,98828.81
2022-08-12T07:57:26.763Z,98828.78
2022-08-12T07:59:55.517Z,98831.34
2022-08-12T08:02:26.588Z,98825.34
2022-08-12T08:04:56.245Z,98823.81
2022-08-12T08:07:24.148Z,98822.50
2022-08-12T08:09:58.548Z,98822.34
2022-08-12T08:12:46.090Z,98819.59
2022-08-12T08:15:14.784Z,98812.69
2022-08-12T08:17:41.357Z,98819.25
2022-08-12T08:20:10.381Z,98820.38
2022-08-12T08:22:41.419Z,98826.72
2022-08-12T08:25:34.710Z,98820.59
2022-08-12T08:28:11.094Z,98814.81
2022-08-12T08:30:42.490Z,98814.75
2022-08-12T08:33:22.835Z,98809.41
2022-08-12T08:35:54.403Z,98804.13
2022-08-12T08:38:31.645Z,98800.06
2022-08-12T08:42:17.517Z,98805.34
2022-08-12T08:44:05.770Z,98794.22
2022-08-12T08:46:37.854Z,98793.44
2022-08-12T08:49:05.325Z,98792.06
2022-08-12T08:51:31.922Z,98798.53
2022-08-12T08:53:58.400Z,98801.97
2022-08-12T08:56:24.883Z,98798.88
2022-08-12T08:58:51.314Z,98784.34
2022-08-12T09:01:22.395Z,98777.41
2022-08-12T09:05:07.790Z,98786.13
2022-08-12T09:06:37.433Z,98792.56
2022-08-12T09:09:13.162Z,98786.81
2022-08-12T09:12:11.130Z,98783.00
2022-08-12T09:14:46.797Z,98788.16
2022-08-12T09:17:21.433Z,98787.91
2022-08-12T09:19:55.173Z,98788.47
2022-08-12T09:22:29.321Z,98792.06
2022-08-12T09:25:11.010Z,98786.81
2022-08-12T09:28:03.457Z,98776.88
2022-08-12T09:30:41.359Z,98793.16
2022-08-12T09:33:15.273Z,98784.06
2022-08-12T09:35:46.890Z,98777.75
2022-08-12T09:38:32.078Z,98779.66
2022-08-12T09:42:08.011Z,98775.25
2022-08-12T09:44:06.140Z,98776.88
2022-08-12T09:46:34.601Z,98763.13
2022-08-12T09:49:04.122Z,98767.50
2022-08-12T09:51:44.466Z,98760.00
2022-08-12T09:54:31.100Z,98753.16
2022-08-12T09:57:03.724Z,98759.59
2022-08-12T10:00:13.349Z,98764.81
2022-08-12T10:02:45.601Z,98754.50
2022-08-12T10:05:22.653Z,98752.88
2022-08-12T10:08:16.666Z,98756.00
2022-08-12T10:11:06.412Z,98742.13
2022-08-12T10:13:43.104Z,98741.75
2022-08-12T10:16:18.737Z,98737.50
2022-08-12T10:18:55.861Z,98725.72
2022-08-12T10:21:23.964Z,98721.50
2022-08-12T10:24:20.257Z,98723.56
2022-08-12T10:27:06.366Z,98719.31
2022-08-12T10:30:03.735Z,98712.44
2022-08-12T10:32:44.653Z,98709.78
2022-08-12T10:35:15.337Z,98707.28
2022-08-12T10:38:35.403Z,98706.94
2022-08-12T10:40:33.018Z,98695.97
2022-08-12T10:43:19.612Z,98698.19
2022-08-12T10:45:49.004Z,98696.78
2022-08-12T10:48:21.624Z,98703.00
2022-08-12T10:51:00.804Z,98699.63
2022-08-12T10:53:44.038Z,98686.47
2022-08-12T10:56:14.097Z,98695.88
2022-08-12T10:58:40.816Z,98698.31
2022-08-12T11:01:49.139Z,98699.47
2022-08-12T11:04:23.646Z,98687.19
2022-08-12T11:07:09.473Z,98685.25
2022-08-12T11:10:00.817Z,98677.38
2022-08-12T11:12:56.078Z,98674.16
2022-08-12T11:15:20.951Z,98674.50
2022-08-12T11:17:53.363Z,98672.22
2022-08-12T11:20:30.673Z,98675.25
2022-08-12T11:22:59.635Z,98668.84
2022-08-12T11:25:55.446Z,98669.28
2022-08-12T11:28:15.778Z,98664.31
2022-08-12T11:30:43.277Z,98667.94
2022-08-12T11:33:11.974Z,98670.69
2022-08-12T11:35:41.584Z,98672.75
2022-08-12T11:38:10.713Z,98661.84
2022-08-12T11:40:37.731Z,98662.56
2022-08-12T11:43:19.315Z,98652.47
2022-08-12T11:45:47.451Z,98648.38
2022-08-12T11:48:15.234Z,98654.91
2022-08-12T11:50:43.754Z,98655.19
2022-08-12T11:53:58.233Z,98645.63
2022-08-12T11:55:56.870Z,98645.38
2022-08-12T11:59:36.000Z,98646.03
2022-08-12T12:02:02.332Z,98642.75
2022-08-12T12:03:56.965Z,98636.59
2022-08-12T12:06:24.836Z,98633.06
2022-08-12T12:08:54.001Z,98626.69
2022-08-12T12:11:21.999Z,98613.44
2022-08-12T12:14:06.572Z,98614.94
2022-08-12T12:16:39.608Z,98614.66
2022-08-12T12:19:07.211Z,98609.91
2022-08-12T12:21:48.258Z,98611.50
2022-08-12T12:24:22.040Z,98612.50
2022-08-12T12:27:00.952Z,98606.38
2022-08-12T12:30:18.174Z,98594.69
2022-08-12T12:32:29.420Z,98609.03
2022-08-12T12:35:14.404Z,98592.97
2022-08-12T12:38:05.577Z,98605.97
2022-08-12T12:40:41.684Z,98593.88
2022-08-12T12:43:12.287Z,98592.84
2022-08-12T12:45:44.442Z,98588.13
2022-08-12T12:48:19.829Z,98586.31
2022-08-12T12:51:09.285Z,98580.28
2022-08-12T12:54:08.200Z,98585.00
2022-08-12T12:56:34.568Z,98582.59
2022-08-12T12:59:03.763Z,98585.78
2022-08-12T13:01:33.089Z,98586.59
2022-08-12T13:04:02.982Z,98580.75
2022-08-12T13:06:30.995Z,98580.34
2022-08-12T13:09:02.880Z,98577.31
2022-08-12T13:11:39.213Z,98552.75
2022-08-12T13:14:12.939Z,98554.69
2022-08-12T13:16:56.421Z,98556.63
2022-08-12T13:19:36.664Z,98557.75
2022-08-12T13:22:18.665Z,98548.78
2022-08-12T13:24:54.815Z,98558.28
2022-08-12T13:27:35.107Z,98549.94
2022-08-12T13:30:06.483Z,98548.03
2022-08-12T13:32:33.518Z,98550.16
2022-08-12T13:35:03.783Z,98553.53
2022-08-12T13:37:43.796Z,98545.63
2022-08-12T13:40:17.946Z,98546.63
2022-08-12T13:42:48.687Z,98538.34
2022-08-12T13:45:17.705Z,98542.53
2022-08-12T13:48:10.400Z,98534.31
2022-08-12T13:50:40.028Z,98542.63
2022-08-12T13:53:23.311Z,98531.88
2022-08-12T13:56:01.284Z,98525.84
2022-08-12T13:58:28.584Z,98527.44
2022-08-12T14:00:56.741Z,98527.19
2022-08-12T14:03:28.493Z,98520.91
2022-08-12T14:06:15.339Z,98530.50
2022-08-12T14:08:43.073Z,98532.50
2022-08-12T14:11:13.224Z,98527.00
2022-08-12T14:14:04.301Z,98527.91
2022-08-12T14:16:38.027Z,98525.81
2022-08-12T14:19:22.382Z,98528.88
2022-08-12T14:21:59.778Z,98518.72
2022-08-12T14:24:36.965Z,98522.94
2022-08-12T14:27:10.298Z,98522.88
2022-08-12T14:30:04.824Z,98526.63
2022-08-12T14:32:28.229Z,98523.75
2022-08-12T14:34:56.675Z,98530.44
2022-08-12T14:37:56.975Z,98511.84
2022-08-12T14:40:11.752Z,98519.78
2022-08-12T14:42:44.857Z,98523.75
2022-08-12T14:45:14.114Z,98527.19
2022-08-12T14:47:53.515Z,98521.06
2022-08-12T14:50:58.182Z,98513.28
2022-08-12T14:54:55.931Z,98508.59
2022-08-12T14:59:20.332Z,98512.06
2022-08-12T15:01:50.445Z,98501.88
2022-08-12T15:04:24.621Z,98507.50
2022-08-12T15:06:53.153Z,98504.91
2022-08-12T15:09:28.668Z,98510.84
2022-08-12T15:12:03.531Z,98506.91
2022-08-12T15:14:31.272Z,98509.97
2022-08-12T15:17:00.440Z,98503.44
2022-08-12T15:20:31.511Z,98503.50
2022-08-12T15:22:37.234Z,98500.44
2022-08-12T15:25:07.223Z,98490.50
2022-08-12T15:28:04.260Z,98494.91
2022-08-12T15:30:22.844Z,98491.34
2022-08-12T15:32:50.667Z,98489.06
2022-08-12T15:35:17.332Z,98485.09
2022-08-12T15:38:09.100Z,98486.16
2022-08-12T15:40:31.752Z,98494.41
2022-08-12T15:43:08.145Z,98486.78
2022-08-12T15:45:38.545Z,98493.94
2022-08-12T15:48:16.855Z,98482.66
2022-08-12T15:50:47.259Z,98492.09
2022-08-12T15:53:39.607Z,98477.88
2022-08-12T15:56:08.554Z,98480.59
2022-08-12T15:58:43.545Z,98475.44
2022-08-12T16:01:14.971Z,98475.50
2022-08-12T16:03:59.960Z,98480.78
2022-08-12T16:06:52.121Z,98485.13
2022-08-12T16:09:21.586Z,98482.44
2022-08-12T16:11:48.415Z,98474.25
2022-08-12T16:14:15.476Z,98479.91
2022-08-12T16:16:42.796Z,98471.91
2022-08-12T16:20:02.285Z,98469.53
2022-08-12T16:21:58.241Z,98480.59
2022-08-12T16:24:25.798Z,98468.47
2022-08-12T16:26:55.184Z,98462.50
2022-08-12T16:29:52.206Z,98468.59
2022-08-12T16:32:19.297Z,98479.97
2022-08-12T16:34:56.032Z,98474.19
2022-08-12T16:37:32.634Z,98474.47
2022-08-12T16:40:12.200Z,98471.16
2022-08-12T16:42:42.097Z,98476.94
2022-08-12T16:45:22.870Z,98466.19
2022-08-12T16:47:58.723Z,98462.09
2022-08-12T16:50:30.791Z,98460.72
2022-08-12T16:53:03.319Z,98469.47
2022-08-12T16:55:41.800Z,98463.34
2022-08-12T16:58:18.721Z,98469.69
2022-08-12T17:00:55.246Z,98468.50
2022-08-12T17:03:29.185Z,98464.59
2022-08-12T17:05:57.123Z,98462.13
2022-08-12T17:08:29.276Z,98466.75
2022-08-12T17:10:56.288Z,98462.38
2022-08-12T17:13:26.073Z,98459.94
2022-08-12T17:16:04.746Z,98462.69
2022-08-12T17:18:42.650Z,98453.38
2022-08-12T17:21:11.845Z,98453.09
2022-08-12T17:23:48.726Z,98446.72
2022-08-12T17:26:22.434Z,98456.00
2022-08-12T17:28:56.599Z,98458.81
2022-08-12T17:31:59.551Z,98455.25
2022-08-12T17:34:29.697Z,98455.53
2022-08-12T17:36:58.703Z,98447.75
2022-08-12T17:40:15.209Z,98454.88
2022-08-12T17:42:32.626Z,98450.75
2022-08-12T17:45:18.081Z,98455.13
2022-08-12T17:48:02.121Z,98458.03
2022-08-12T17:50:38.213Z,98461.78
2022-08-12T17:53:08.139Z,98468.38
2022-08-12T17:55:43.118Z,98465.03
2022-08-12T17:58:16.263Z,98459.72
2022-08-12T18:00:45.499Z,98464.47
2022-08-12T18:04:05.209Z,98466.81
2022-08-12T18:06:08.398Z,98467.69
2022-08-12T18:08:35.625Z,98475.28
2022-08-12T18:11:49.946Z,98459.56
2022-08-12T18:14:07.468Z,98470.94
2022-08-12T18:16:35.001Z,98468.63
2022-08-12T18:19:02.234Z,98477.31
2022-08-12T18:22:01.510Z,98479.09
2022-08-12T18:24:22.307Z,98474.41
2022-08-12T18:26:53.053Z,98487.59
2022-08-12T18:29:20.448Z,98486.94
2022-08-12T18:31:59.826Z,98495.31
2022-08-12T18:34:31.371Z,98491.66
2022-08-12T18:37:26.573Z,98492.31
2022-08-12T18:40:06.000Z,98491.78
2022-08-12T18:42:32.648Z,98499.38
2022-08-12T18:45:02.491Z,98496.59
2022-08-12T18:47:43.780Z,98494.69
2022-08-12T18:50:17.938Z,98497.38
2022-08-12T18:52:48.496Z,98490.41
2022-08-12T18:55:16.114Z,98501.31
2022-08-12T18:58:07.467Z,98506.09
2022-08-12T19:00:34.075Z,98507.41
2022-08-12T19:03:02.371Z,98503.50
2022-08-12T19:05:54.343Z,98513.72
2022-08-12T19:08:15.636Z,98507.03
2022-08-12T19:10:43.136Z,98512.81
2022-08-12T19:13:36.506Z,98513.00
2022-08-12T19:16:10.435Z,98522.81
2022-08-12T19:18:40.422Z,98525.09
2022-08-12T19:21:11.895Z,98530.34
2022-08-12T19:23:43.017Z,98534.75
2022-08-12T19:26:12.711Z,98540.66
2022-08-12T19:28:40.114Z,98540.81
2022-08-12T19:31:45.409Z,98534.56
2022-08-12T19:38:02.690Z,98535.72
2022-08-12T19:40:20.534Z,98534.16
2022-08-12T19:43:19.377Z,98534.59
2022-08-12T19:45:54.308Z,98535.88
2022-08-12T19:48:27.558Z,98532.59
2022-08-12T19:50:55.473Z,98532.25
2022-08-12T19:53:23.774Z,98540.59
2022-08-12T19:55:55.107Z,98535.81
2022-08-12T19:58:23.033Z,98537.09
2022-08-12T20:00:52.696Z,98535.84
2022-08-12T20:03:39.415Z,98541.88
2022-08-12T20:06:14.222Z,98534.00
2022-08-12T20:08:48.893Z,98537.31
2022-08-12T20:12:12.526Z,98540.63
2022-08-12T20:14:06.148Z,98547.66
2022-08-12T20:16:57.191Z,98555.75
2022-08-12T20:19:53.013Z,98564.88
2022-08-12T20:22:16.686Z,98570.25
2022-08-12T20:24:55.127Z,98565.44
2022-08-12T20:27:28.832Z,98567.72
2022-08-12T20:30:11.510Z,98560.63
2022-08-12T20:33:01.017Z,98564.47
2022-08-12T20:36:05.824Z,98571.03
2022-08-12T20:38:26.147Z,98571.84
2022-08-12T20:40:53.817Z,98575.13
2022-08-12T20:43:24.286Z,98571.31
2022-08-12T20:45:57.703Z,98565.44
2022-08-12T20:48:25.525Z,98562.53
2022-08-12T20:50:55.603Z,98575.28
2022-08-12T20:53:32.962Z,98579.53
2022-08-12T20:56:19.464Z,98578.84
2022-08-12T20:58:46.294Z,98585.81
2022-08-12T21:01:15.373Z,98588.19
2022-08-12T21:04:05.337Z,98589.91
2022-08-12T21:06:50.547Z,98591.44
2022-08-12T21:09:22.535Z,98582.81
2022-08-12T21:11:53.590Z,98587.66
2022-08-12T21:14:20.324Z,98589.03
2022-08-12T21:17:06.485Z,98589.91
2022-08-12T21:19:51.987Z,98595.59
2022-08-12T21:22:24.740Z,98599.53
2022-08-12T21:24:53.037Z,98588.94
2022-08-12T21:27:20.033Z,98594.31
2022-08-12T21:29:54.895Z,98601.47
2022-08-12T21:32:46.870Z,98603.16
2022-08-12T21:35:10.392Z,98595.47
2022-08-12T21:37:53.141Z,98601.28
2022-08-12T21:40:20.195Z,98598.25
2022-08-12T21:42:47.356Z,98607.63
2022-08-12T21:45:45.538Z,98609.97
2022-08-12T21:48:08.251Z,98600.13
2022-08-12T21:50:35.549Z,98602.72
2022-08-12T21:53:10.481Z,98599.75
2022-08-12T21:55:37.205Z,98609.56
2022-08-12T21:58:16.571Z,98621.75
2022-08-12T22:00:43.466Z,98605.66
2022-08-12T22:04:03.896Z,98608.16
2022-08-12T22:06:31.198Z,98615.97
2022-08-12T22:09:16.711Z,98620.75
2022-08-12T22:11:56.341Z,98620.94
2022-08-12T22:14:26.371Z,98624.03
2022-08-12T22:16:56.202Z,98623.84
2022-08-12T22:19:23.383Z,98618.97
2022-08-12T22:21:53.105Z,98629.41
2022-08-12T22:24:26.499Z,98632.41
2022-08-12T22:27:08.210Z,98627.75
2022-08-12T22:30:04.051Z,98622.03
2022-08-12T22:32:30.471Z,98621.53
2022-08-12T22:35:21.944Z,98628.63
2022-08-12T22:37:49.744Z,98628.66
2022-08-12T22:40:19.941Z,98614.78
2022-08-12T22:43:05.773Z,98621.16
2022-08-12T22:45:58.779Z,98622.56
2022-08-12T22:48:26.725Z,98620.75
2022-08-12T22:50:59.333Z,98619.09
2022-08-12T22:53:36.334Z,98622.66
2022-08-12T22:56:06.768Z,98624.16
2022-08-12T22:58:40.543Z,98627.22
2022-08-12T23:01:08.204Z,98626.22
2022-08-12T23:03:49.580Z,98622.41
2022-08-12T23:06:23.630Z,98625.78
2022-08-12T23:08:51.530Z,98618.56
2022-08-12T23:11:23.617Z,98617.03
2022-08-12T23:13:55.440Z,98616.72
2022-08-12T23:16:30.929Z,98627.44
2022-08-12T23:19:10.392Z,98625.97
2022-08-12T23:22:06.421Z,98628.34
2022-08-12T23:24:55.748Z,98621.31
2022-08-12T23:27:50.755Z,98620.84
2022-08-12T23:30:31.120Z,98620.84
2022-08-12T23:33:00.578Z,98622.22
2022-08-12T23:35:46.136Z,98620.56
2022-08-12T23:38:19.004Z,98615.50
2022-08-12T23:41:00.725Z,98627.25
2022-08-12T23:43:39.330Z,98628.25
2022-08-12T23:46:09.059Z,98620.53
2022-08-12T23:48:37.326Z,98623.75
2022-08-12T23:51:22.182Z,98627.59
2022-08-12T23:53:56.030Z,98621.91
2022-08-12T23:56:25.216Z,98625.91
2022-08-12T23:58:54.936Z,98618.06
